createdAt,value
2017-12-05T00:01:31.206Z,95.23
2017-12-05T00:04:00.073Z,88.03
2017-12-05T00:06:28.932Z,100.27
2017-12-05T00:08:57.767Z,93.13
2017-12-05T00:11:26.623Z,97.63
2017-12-05T00:13:55.497Z,102.63
2017-12-05T00:16:24.338Z,98.17
2017-12-05T00:18:53.198Z,93.27
2017-12-05T00:21:22.138Z,95.60
2017-12-05T00:23:50.991Z,107.60
2017-12-05T00:26:19.865Z,113.10
2017-12-05T00:28:48.731Z,109.67
2017-12-05T00:31:17.568Z,101.60
2017-12-05T00:33:46.408Z,100.53
2017-12-05T00:36:15.259Z,106.13
2017-12-05T00:38:45.163Z,99.53
2017-12-05T00:41:14.007Z,104.53
2017-12-05T00:43:42.867Z,99.57
2017-12-05T00:46:12.407Z,98.83
2017-12-05T00:48:41.256Z,107.83
2017-12-05T00:51:10.135Z,105.47
2017-12-05T00:53:38.981Z,108.23
2017-12-05T00:56:07.855Z,104.13
2017-12-05T00:58:36.831Z,99.33
2017-12-05T01:01:05.671Z,99.97
2017-12-05T01:03:34.510Z,114.27
2017-12-05T01:06:03.411Z,127.93
2017-12-05T01:08:32.263Z,112.37
2017-12-05T01:11:01.123Z,113.50
2017-12-05T01:13:30.017Z,119.40
2017-12-05T01:15:58.865Z,111.13
2017-12-05T01:18:28.807Z,118.07
2017-12-05T01:20:57.677Z,85.57
2017-12-05T01:23:26.529Z,104.00
2017-12-05T01:25:55.405Z,114.03
2017-12-05T01:28:24.273Z,102.87
2017-12-05T01:30:54.093Z,102.70
2017-12-05T01:33:22.941Z,116.83
2017-12-05T01:35:51.829Z,113.67
2017-12-05T01:38:20.679Z,109.37
2017-12-05T01:40:49.517Z,104.80
2017-12-05T01:43:18.403Z,110.37
2017-12-05T01:45:47.371Z,106.97
2017-12-05T01:48:16.211Z,100.57
2017-12-05T01:50:45.092Z,96.33
2017-12-05T01:53:13.956Z,101.17
2017-12-05T01:55:42.843Z,107.40
2017-12-05T01:58:11.709Z,103.03
2017-12-05T02:00:41.419Z,110.57
2017-12-05T02:03:10.894Z,103.13
2017-12-05T02:05:39.761Z,88.57
2017-12-05T02:08:09.461Z,94.00
2017-12-05T02:10:38.351Z,106.50
2017-12-05T02:13:07.267Z,107.43
2017-12-05T02:15:36.107Z,100.97
2017-12-05T02:18:04.969Z,101.20
2017-12-05T02:20:33.855Z,115.17
2017-12-05T02:23:04.769Z,101.03
2017-12-05T02:25:33.615Z,91.27
2017-12-05T02:28:02.485Z,93.03
2017-12-05T02:30:31.344Z,97.00
2017-12-05T02:33:01.007Z,96.63
2017-12-05T02:35:29.869Z,93.10
2017-12-05T02:37:58.723Z,86.70
2017-12-05T02:40:44.296Z,104.40
2017-12-05T02:43:13.136Z,93.67
2017-12-05T02:45:41.972Z,104.03
2017-12-05T02:48:10.849Z,110.83
2017-12-05T02:50:39.725Z,106.93
2017-12-05T02:53:08.573Z,96.80
2017-12-05T02:55:37.454Z,101.23
2017-12-05T02:58:06.287Z,98.13
2017-12-05T03:00:35.129Z,96.40
2017-12-05T03:03:04.001Z,95.30
2017-12-05T03:05:32.857Z,103.57
2017-12-05T03:08:02.707Z,99.50
2017-12-05T03:10:31.579Z,93.37
2017-12-05T03:13:00.437Z,97.23
2017-12-05T03:15:29.285Z,103.27
2017-12-05T03:17:58.147Z,93.90
2017-12-05T03:20:26.984Z,89.70
2017-12-05T03:22:55.943Z,101.40
2017-12-05T03:25:24.819Z,107.07
2017-12-05T03:27:53.667Z,91.53
2017-12-05T03:30:22.520Z,102.47
2017-12-05T03:32:52.299Z,97.43
2017-12-05T03:35:21.141Z,91.43
2017-12-05T03:37:49.995Z,82.47
2017-12-05T03:40:18.875Z,90.90
2017-12-05T03:42:47.756Z,98.57
2017-12-05T03:45:16.599Z,94.60
2017-12-05T03:47:45.477Z,102.10
2017-12-05T03:50:14.327Z,95.40
2017-12-05T03:52:43.167Z,99.47
2017-12-05T03:55:12.024Z,99.00
2017-12-05T03:57:40.873Z,88.97
2017-12-05T04:00:09.707Z,91.60
2017-12-05T04:02:38.622Z,97.50
2017-12-05T04:05:07.473Z,84.37
2017-12-05T04:07:36.324Z,126.73
2017-12-05T04:10:05.181Z,99.73
2017-12-05T04:12:34.062Z,91.27
2017-12-05T04:15:03.011Z,103.70
2017-12-05T04:17:31.887Z,104.20
2017-12-05T04:20:00.744Z,96.27
2017-12-05T04:22:29.623Z,93.47
2017-12-05T04:24:58.475Z,96.80
2017-12-05T04:27:27.309Z,99.60
2017-12-05T04:29:56.165Z,105.50
2017-12-05T04:32:26.119Z,104.10
2017-12-05T04:34:54.967Z,107.83
2017-12-05T04:37:23.817Z,96.37
2017-12-05T04:39:52.695Z,105.17
2017-12-05T04:42:21.539Z,105.63
2017-12-05T04:44:50.404Z,88.47
2017-12-05T04:47:19.313Z,104.97
2017-12-05T04:49:48.160Z,101.83
2017-12-05T04:52:17.032Z,97.27
2017-12-05T04:54:45.891Z,96.13
2017-12-05T04:57:14.761Z,85.10
2017-12-05T04:59:43.605Z,91.03
2017-12-05T05:02:12.487Z,115.73
2017-12-05T05:04:41.332Z,102.47
2017-12-05T05:07:10.179Z,107.03
2017-12-05T05:09:39.044Z,111.40
2017-12-05T05:12:07.896Z,103.50
2017-12-05T05:14:36.759Z,99.77
2017-12-05T05:17:05.642Z,89.43
2017-12-05T05:19:34.711Z,94.77
2017-12-05T05:22:03.979Z,93.63
2017-12-05T05:24:32.835Z,90.53
2017-12-05T05:27:01.685Z,96.33
2017-12-05T05:29:30.523Z,111.53
2017-12-05T05:31:59.383Z,92.83
2017-12-05T05:34:28.242Z,91.27
2017-12-05T05:36:57.138Z,91.37
2017-12-05T05:39:26.021Z,92.90
2017-12-05T05:41:54.865Z,110.17
2017-12-05T05:44:23.715Z,88.23
2017-12-05T05:46:52.598Z,103.63
2017-12-05T05:49:21.452Z,98.13
2017-12-05T05:51:50.349Z,118.33
2017-12-05T05:54:19.211Z,98.40
2017-12-05T05:56:48.123Z,100.10
2017-12-05T05:59:17.681Z,104.60
2017-12-05T06:01:46.551Z,99.40
2017-12-05T06:04:15.397Z,98.73
2017-12-05T06:06:44.245Z,92.43
2017-12-05T06:09:13.153Z,95.83
2017-12-05T06:11:41.999Z,107.13
2017-12-05T06:14:10.841Z,109.30
2017-12-05T06:16:39.716Z,107.67
2017-12-05T06:19:10.668Z,96.50
2017-12-05T06:21:39.526Z,102.80
2017-12-05T06:24:08.408Z,113.13
2017-12-05T06:26:37.398Z,101.00
2017-12-05T06:29:06.903Z,96.10
2017-12-05T06:31:35.914Z,98.17
2017-12-05T06:34:04.795Z,110.03
2017-12-05T06:36:33.659Z,98.57
2017-12-05T06:39:02.655Z,102.47
2017-12-05T06:41:31.519Z,109.77
2017-12-05T06:44:00.401Z,108.00
2017-12-05T06:46:29.267Z,111.10
2017-12-05T06:48:58.213Z,105.53
2017-12-05T06:51:27.529Z,112.17
2017-12-05T06:53:56.413Z,107.00
2017-12-05T06:56:25.285Z,99.20
2017-12-05T06:58:54.193Z,104.13
2017-12-05T07:01:23.055Z,102.90
2017-12-05T07:03:51.903Z,111.23
2017-12-05T07:06:20.785Z,103.57
2017-12-05T07:08:49.627Z,89.97
2017-12-05T07:11:18.465Z,98.80
2017-12-05T07:13:48.514Z,103.87
2017-12-05T07:16:17.377Z,101.50
2017-12-05T07:18:46.219Z,98.57
2017-12-05T07:21:15.109Z,98.93
2017-12-05T07:23:43.951Z,99.77
2017-12-05T07:26:12.813Z,89.20
2017-12-05T07:28:41.680Z,88.73
2017-12-05T07:31:10.527Z,99.83
2017-12-05T07:33:39.379Z,90.23
2017-12-05T07:36:08.732Z,100.57
2017-12-05T07:38:37.573Z,93.27
2017-12-05T07:41:06.445Z,89.10
2017-12-05T07:43:35.339Z,95.13
2017-12-05T07:46:04.200Z,90.80
2017-12-05T07:48:33.047Z,92.30
2017-12-05T07:51:02.357Z,89.77
2017-12-05T07:53:31.195Z,97.63
2017-12-05T07:56:00.039Z,81.83
2017-12-05T07:58:28.903Z,90.40
2017-12-05T08:00:57.771Z,97.43
2017-12-05T08:03:26.603Z,96.87
2017-12-05T08:05:55.460Z,97.30
2017-12-05T08:08:24.327Z,87.57
2017-12-05T08:10:53.804Z,92.93
2017-12-05T08:13:22.663Z,87.97
2017-12-05T08:15:51.500Z,80.80
2017-12-05T08:18:20.371Z,88.57
2017-12-05T08:20:49.226Z,86.10
2017-12-05T08:23:19.766Z,91.83
2017-12-05T08:25:48.678Z,86.17
2017-12-05T08:28:17.533Z,90.00
2017-12-05T08:30:46.388Z,85.13
2017-12-05T08:33:16.115Z,91.80
2017-12-05T08:35:45.365Z,76.83
2017-12-05T08:38:14.235Z,81.50
2017-12-05T08:40:43.079Z,82.60
2017-12-05T08:43:12.581Z,79.43
2017-12-05T08:45:41.421Z,83.20
2017-12-05T08:48:10.845Z,81.13
2017-12-05T08:50:40.543Z,83.60
2017-12-05T08:53:09.391Z,81.77
2017-12-05T08:55:38.254Z,84.03
2017-12-05T08:58:07.111Z,73.67
2017-12-05T09:00:36.097Z,80.13
2017-12-05T09:03:05.075Z,81.70
2017-12-05T09:05:34.101Z,80.10
2017-12-05T09:08:02.975Z,85.27
2017-12-05T09:10:31.829Z,78.50
2017-12-05T09:13:00.689Z,75.70
2017-12-05T09:15:30.379Z,80.33
2017-12-05T09:17:59.249Z,76.60
2017-12-05T09:20:28.121Z,70.63
2017-12-05T09:22:56.985Z,79.83
2017-12-05T09:25:25.827Z,71.53
2017-12-05T09:27:54.697Z,60.37
2017-12-05T09:30:23.532Z,75.77
2017-12-05T09:32:52.377Z,70.10
2017-12-05T09:35:21.269Z,74.83
2017-12-05T09:37:50.679Z,66.00
2017-12-05T09:40:19.526Z,70.90
2017-12-05T09:42:49.729Z,67.17
2017-12-05T09:45:18.821Z,74.13
2017-12-05T09:47:47.667Z,72.23
2017-12-05T09:50:16.519Z,69.93
2017-12-05T09:52:45.364Z,81.37
2017-12-05T09:55:14.271Z,74.30
2017-12-05T09:57:43.133Z,70.90
2017-12-05T10:00:12.532Z,66.90
2017-12-05T10:02:41.374Z,73.43
2017-12-05T10:05:10.237Z,66.53
2017-12-05T10:07:40.041Z,70.13
2017-12-05T10:10:08.891Z,54.43
2017-12-05T10:12:38.663Z,58.33
2017-12-05T10:15:08.350Z,65.13
2017-12-05T10:17:37.209Z,67.43
2017-12-05T10:20:06.124Z,65.17
2017-12-05T10:22:35.709Z,65.53
2017-12-05T10:25:04.543Z,63.00
2017-12-05T10:27:34.225Z,60.93
2017-12-05T10:30:03.136Z,64.50
2017-12-05T10:32:31.993Z,61.53
2017-12-05T10:35:00.861Z,64.53
2017-12-05T10:37:30.267Z,59.33
2017-12-05T10:39:59.137Z,62.60
2017-12-05T10:42:28.351Z,63.27
2017-12-05T10:44:57.193Z,69.67
2017-12-05T10:47:26.035Z,66.20
2017-12-05T10:49:54.899Z,67.00
2017-12-05T10:52:24.535Z,58.43
2017-12-05T10:54:53.404Z,54.30
2017-12-05T10:57:22.261Z,65.00
2017-12-05T10:59:51.109Z,59.33
2017-12-05T11:02:19.949Z,61.23
2017-12-05T11:04:48.851Z,52.13
2017-12-05T11:07:17.719Z,59.80
2017-12-05T11:09:46.569Z,57.00
2017-12-05T11:12:15.425Z,59.77
2017-12-05T11:14:44.429Z,55.77
2017-12-05T11:17:13.287Z,56.50
2017-12-05T11:19:42.391Z,53.40
2017-12-05T11:22:11.244Z,54.53
2017-12-05T11:24:40.095Z,54.83
2017-12-05T11:27:08.961Z,54.13
2017-12-05T11:29:37.813Z,51.50
2017-12-05T11:32:06.651Z,66.90
2017-12-05T11:34:35.507Z,54.77
2017-12-05T11:37:04.451Z,51.50
2017-12-05T11:39:33.303Z,59.97
2017-12-05T11:42:02.173Z,47.60
2017-12-05T11:44:31.050Z,49.23
2017-12-05T11:47:00.762Z,47.40
2017-12-05T11:49:29.622Z,45.17
2017-12-05T11:51:58.481Z,49.93
2017-12-05T11:54:27.343Z,48.63
2017-12-05T11:56:56.213Z,49.87
2017-12-05T11:59:25.082Z,42.40
2017-12-05T12:01:53.919Z,46.90
2017-12-05T12:04:22.769Z,45.63
2017-12-05T12:06:51.621Z,58.37
2017-12-05T12:09:20.488Z,46.37
2017-12-05T12:11:49.375Z,47.10
2017-12-05T12:14:18.221Z,44.43
2017-12-05T12:16:47.073Z,43.23
2017-12-05T12:19:16.575Z,36.27
2017-12-05T12:21:45.409Z,40.43
2017-12-05T12:24:14.243Z,40.23
2017-12-05T12:26:43.127Z,39.57
2017-12-05T12:29:11.972Z,47.20
2017-12-05T12:31:40.844Z,35.93
2017-12-05T12:34:10.679Z,36.60
2017-12-05T12:36:39.527Z,35.33
2017-12-05T12:39:08.372Z,39.77
2017-12-05T12:41:37.243Z,34.63
2017-12-05T12:44:06.103Z,33.27
2017-12-05T12:46:34.957Z,36.30
2017-12-05T12:49:03.878Z,33.07
2017-12-05T12:51:32.754Z,36.33
2017-12-05T12:54:01.601Z,39.60
2017-12-05T12:56:30.527Z,37.53
2017-12-05T12:58:59.397Z,37.20
2017-12-05T13:01:28.241Z,33.27
2017-12-05T13:03:57.842Z,37.50
2017-12-05T13:06:26.891Z,38.93
2017-12-05T13:08:55.740Z,35.63
2017-12-05T13:11:24.587Z,37.13
2017-12-05T13:13:53.487Z,34.77
2017-12-05T13:16:22.325Z,37.27
2017-12-05T13:18:51.191Z,39.87
2017-12-05T13:21:20.051Z,41.03
2017-12-05T13:23:48.906Z,36.67
2017-12-05T13:26:18.278Z,37.93
2017-12-05T13:28:47.133Z,35.50
2017-12-05T13:31:16.715Z,35.53
2017-12-05T13:33:45.597Z,35.60
2017-12-05T13:36:14.484Z,32.13
2017-12-05T13:38:43.325Z,28.97
2017-12-05T13:41:13.039Z,32.00
2017-12-05T13:43:42.569Z,32.20
2017-12-05T13:46:11.487Z,33.13
2017-12-05T13:48:40.339Z,30.57
2017-12-05T13:51:09.173Z,32.93
2017-12-05T13:53:38.611Z,27.70
2017-12-05T13:56:07.537Z,32.43
2017-12-05T13:58:36.421Z,32.70
2017-12-05T14:01:05.259Z,29.03
2017-12-05T14:03:34.129Z,33.87
2017-12-05T14:06:02.991Z,30.23
2017-12-05T14:08:31.842Z,31.60
2017-12-05T14:11:00.859Z,28.73
2017-12-05T14:13:29.693Z,30.10
2017-12-05T14:15:58.565Z,31.20
2017-12-05T14:18:27.449Z,28.03
2017-12-05T14:20:56.308Z,31.43
2017-12-05T14:23:25.191Z,29.67
2017-12-05T14:25:54.051Z,29.87
2017-12-05T14:28:23.151Z,32.00
2017-12-05T14:30:52.019Z,32.53
2017-12-05T14:33:21.520Z,31.60
2017-12-05T14:35:50.411Z,30.63
2017-12-05T14:38:19.258Z,31.33
2017-12-05T14:40:48.144Z,31.37
2017-12-05T14:43:16.986Z,29.27
2017-12-05T14:45:45.862Z,28.57
2017-12-05T14:48:14.709Z,32.00
2017-12-05T14:50:43.570Z,137.50
2017-12-05T14:53:12.450Z,35.47
2017-12-05T14:55:41.319Z,30.07
2017-12-05T14:58:10.173Z,34.53
2017-12-05T15:00:39.026Z,32.47
2017-12-05T15:03:07.971Z,30.20
2017-12-05T15:05:36.818Z,26.43
2017-12-05T15:08:05.675Z,30.43
2017-12-05T15:10:34.567Z,26.13
2017-12-05T15:13:03.428Z,29.60
2017-12-05T15:15:32.699Z,29.97
2017-12-05T15:18:01.601Z,25.40
2017-12-05T15:20:30.479Z,26.90
2017-12-05T15:22:59.319Z,27.47
2017-12-05T15:25:29.058Z,26.27
2017-12-05T15:27:57.905Z,25.57
2017-12-05T15:30:26.755Z,25.90
2017-12-05T15:32:55.641Z,24.10
2017-12-05T15:35:24.499Z,24.83
2017-12-05T15:37:53.352Z,25.17
2017-12-05T15:40:22.269Z,24.53
2017-12-05T15:42:51.137Z,21.97
2017-12-05T15:45:25.026Z,22.17
2017-12-05T15:47:53.905Z,24.20
2017-12-05T15:50:23.263Z,22.40
2017-12-05T15:52:52.129Z,22.57
2017-12-05T15:55:21.009Z,23.60
2017-12-05T15:57:50.837Z,20.57
2017-12-05T16:00:19.713Z,22.13
2017-12-05T16:02:48.595Z,25.40
2017-12-05T16:05:17.447Z,37.47
2017-12-05T16:07:46.303Z,23.63
2017-12-05T16:10:15.169Z,183.30
2017-12-05T16:12:44.024Z,43.33
2017-12-05T16:15:12.859Z,21.80
2017-12-05T16:17:41.725Z,22.30
2017-12-05T16:20:10.589Z,24.13
2017-12-05T16:22:40.908Z,22.50
2017-12-05T16:25:09.779Z,19.00
2017-12-05T16:27:38.617Z,20.77
2017-12-05T16:30:07.473Z,22.03
2017-12-05T16:32:36.339Z,26.13
2017-12-05T16:35:05.249Z,20.47
2017-12-05T16:37:34.285Z,19.53
2017-12-05T16:40:03.230Z,20.43
2017-12-05T16:42:32.094Z,19.40
2017-12-05T16:45:00.931Z,20.17
2017-12-05T16:47:30.759Z,20.27
2017-12-05T16:49:59.593Z,25.10
2017-12-05T16:52:28.455Z,22.23
2017-12-05T16:54:57.322Z,18.67
2017-12-05T16:57:26.261Z,18.50
2017-12-05T16:59:55.811Z,19.67
2017-12-05T17:02:24.759Z,18.10
2017-12-05T17:04:54.507Z,17.83
2017-12-05T17:07:23.359Z,16.70
2017-12-05T17:09:52.217Z,18.17
2017-12-05T17:12:21.123Z,16.10
2017-12-05T17:14:49.962Z,17.47
2017-12-05T17:17:18.861Z,17.03
2017-12-05T17:19:47.712Z,19.83
2017-12-05T17:22:16.593Z,16.37
2017-12-05T17:24:45.473Z,15.77
2017-12-05T17:27:14.331Z,19.20
2017-12-05T17:29:43.188Z,17.07
2017-12-05T17:32:12.051Z,22.43
2017-12-05T17:34:40.899Z,19.67
2017-12-05T17:37:09.765Z,21.20
2017-12-05T17:39:38.684Z,19.67
2017-12-05T17:42:07.504Z,18.37
2017-12-05T17:44:36.435Z,20.10
2017-12-05T17:47:05.309Z,17.37
2017-12-05T17:49:34.171Z,17.30
2017-12-05T17:52:03.041Z,16.50
2017-12-05T17:54:31.909Z,16.13
2017-12-05T17:57:00.755Z,16.80
2017-12-05T17:59:29.629Z,18.50
2017-12-05T18:01:59.235Z,16.37
2017-12-05T18:04:28.091Z,15.63
2017-12-05T18:06:57.545Z,20.57
2017-12-05T18:09:26.451Z,17.40
2017-12-05T18:11:55.286Z,21.27
2017-12-05T18:14:24.135Z,20.17
2017-12-05T18:16:53.001Z,19.27
2017-12-05T18:19:21.869Z,21.50
2017-12-05T18:21:50.719Z,19.10
2017-12-05T18:24:19.635Z,19.90
2017-12-05T18:26:48.495Z,17.77
2017-12-05T18:29:17.384Z,18.00
2017-12-05T18:31:46.244Z,18.13
2017-12-05T18:34:15.710Z,15.90
2017-12-05T18:36:44.641Z,18.47
2017-12-05T18:39:13.637Z,15.87
2017-12-05T18:41:42.475Z,16.30
2017-12-05T18:44:11.331Z,21.17
2017-12-05T18:46:40.199Z,20.57
2017-12-05T18:49:09.045Z,16.50
2017-12-05T18:51:37.905Z,14.43
2017-12-05T18:54:06.793Z,19.23
2017-12-05T18:56:35.653Z,23.90
2017-12-05T18:59:04.520Z,19.27
2017-12-05T19:01:33.432Z,20.77
2017-12-05T19:04:02.285Z,16.03
2017-12-05T19:06:31.171Z,20.07
2017-12-05T19:09:00.044Z,17.23
2017-12-05T19:11:28.895Z,16.10
2017-12-05T19:13:57.729Z,18.90
2017-12-05T19:16:26.650Z,18.90
2017-12-05T19:18:55.504Z,17.00
2017-12-05T19:21:24.362Z,18.33
2017-12-05T19:23:53.253Z,20.00
2017-12-05T19:26:22.107Z,15.80
2017-12-05T19:28:51.685Z,16.87
2017-12-05T19:31:20.561Z,17.20
2017-12-05T19:33:49.691Z,18.20
2017-12-05T19:36:18.553Z,17.67
2017-12-05T19:38:47.442Z,18.10
2017-12-05T19:41:16.787Z,20.80
2017-12-05T19:43:46.667Z,17.93
2017-12-05T19:46:15.655Z,18.97
2017-12-05T19:48:44.508Z,18.77
2017-12-05T19:51:13.344Z,20.70
2017-12-05T19:53:42.230Z,18.43
2017-12-05T19:56:11.351Z,25.33
2017-12-05T19:58:40.241Z,21.57
2017-12-05T20:01:09.168Z,22.33
2017-12-05T20:03:38.017Z,21.17
2017-12-05T20:06:06.899Z,21.90
2017-12-05T20:08:35.839Z,18.93
2017-12-05T20:11:04.740Z,22.83
2017-12-05T20:13:33.591Z,19.63
2017-12-05T20:16:02.500Z,21.23
2017-12-05T20:18:31.351Z,20.37
2017-12-05T20:21:00.211Z,20.53
2017-12-05T20:23:29.155Z,19.20
2017-12-05T20:25:58.917Z,20.70
2017-12-05T20:28:27.991Z,23.73
2017-12-05T20:30:56.853Z,19.77
2017-12-05T20:33:25.685Z,22.23
2017-12-05T20:35:54.585Z,18.37
2017-12-05T20:38:23.492Z,20.20
2017-12-05T20:40:52.351Z,19.27
2017-12-05T20:43:21.213Z,21.90
2017-12-05T20:45:50.124Z,20.87
2017-12-05T20:48:18.992Z,25.03
2017-12-05T20:50:47.847Z,22.83
2017-12-05T20:53:16.723Z,23.97
2017-12-05T20:55:45.564Z,21.53
2017-12-05T20:58:14.505Z,26.33
2017-12-05T21:00:43.591Z,23.60
2017-12-05T21:03:12.950Z,25.33
2017-12-05T21:05:41.851Z,26.07
2017-12-05T21:08:10.747Z,22.27
2017-12-05T21:10:40.655Z,31.37
2017-12-05T21:13:09.507Z,42.63
2017-12-05T21:15:38.419Z,23.60
2017-12-05T21:18:07.303Z,24.90
2017-12-05T21:20:36.157Z,29.00
2017-12-05T21:23:05.071Z,28.60
2017-12-05T21:25:34.021Z,22.60
2017-12-05T21:28:03.274Z,20.17
2017-12-05T21:30:32.331Z,23.53
2017-12-05T21:33:02.206Z,22.30
2017-12-05T21:35:31.041Z,19.97
2017-12-05T21:37:59.929Z,24.40
2017-12-05T21:40:28.789Z,22.60
2017-12-05T21:42:57.671Z,20.47
2017-12-05T21:45:26.562Z,25.27
2017-12-05T21:47:55.412Z,22.87
2017-12-05T21:50:24.576Z,20.50
2017-12-05T21:52:53.467Z,21.40
2017-12-05T21:55:22.303Z,24.73
2017-12-05T21:57:51.399Z,22.50
2017-12-05T22:00:20.858Z,19.57
2017-12-05T22:02:52.079Z,19.70
2017-12-05T22:05:21.009Z,19.30
2017-12-05T22:07:50.174Z,19.80
2017-12-05T22:10:20.051Z,19.33
2017-12-05T22:12:48.937Z,20.50
2017-12-05T22:15:18.435Z,24.20
2017-12-05T22:17:48.287Z,20.63
2017-12-05T22:20:17.181Z,21.67
2017-12-05T22:22:46.029Z,20.47
2017-12-05T22:25:15.077Z,20.10
2017-12-05T22:27:44.171Z,20.43
2017-12-05T22:30:13.067Z,22.07
2017-12-05T22:32:41.919Z,21.73
2017-12-05T22:35:10.817Z,25.10
2017-12-05T22:37:39.714Z,34.03
2017-12-05T22:40:08.553Z,27.03
2017-12-05T22:42:37.413Z,28.20
2017-12-05T22:45:06.270Z,29.87
2017-12-05T22:47:35.155Z,26.27
2017-12-05T22:50:04.042Z,23.80
2017-12-05T22:52:32.889Z,23.87
2017-12-05T22:55:01.739Z,19.33
2017-12-05T22:57:30.599Z,22.33
2017-12-05T22:59:59.697Z,23.00
2017-12-05T23:02:28.539Z,21.70
2017-12-05T23:04:57.473Z,21.97
2017-12-05T23:07:26.310Z,23.17
2017-12-05T23:09:55.201Z,21.60
2017-12-05T23:12:24.101Z,20.53
2017-12-05T23:14:52.952Z,20.63
2017-12-05T23:17:21.831Z,20.97
2017-12-05T23:19:50.748Z,20.23
2017-12-05T23:22:19.589Z,19.70
2017-12-05T23:24:49.349Z,22.90
2017-12-05T23:27:18.219Z,20.83
2017-12-05T23:29:47.065Z,24.23
2017-12-05T23:32:15.907Z,22.87
2017-12-05T23:34:44.779Z,21.60
2017-12-05T23:37:13.635Z,22.00
2017-12-05T23:39:42.511Z,22.00
2017-12-05T23:42:11.372Z,19.77
2017-12-05T23:44:40.219Z,21.30
2017-12-05T23:47:09.073Z,21.23
2017-12-05T23:49:37.936Z,22.07
2017-12-05T23:52:06.916Z,23.50
2017-12-05T23:54:35.773Z,21.63
2017-12-05T23:57:04.651Z,23.50
2017-12-05T23:59:33.511Z,20.13
